Time;durP1;ratioP1;P1;durP2;ratioP2;P2;SDS_P1;SDS_P2;PMS_P1;PMS_P2;Temp;Humidity;BMP_temperature;BMP_pressure;BME280_temperature;BME280_humidity;BME280_pressure;Samples;Min_cycle;Max_cycle;Signal;HPM_P1;HPM_P2
2021/06/14 00:00:28;;;;;;;;;;;;;;;8.84;100.00;101797.44;5010575;28;19926;-71
2021/06/14 00:02:55;;;;;;;;;;;;;;;8.83;100.00;101798.41;4994904;28;19937;-71
2021/06/14 00:05:28;;;;;;;;;;;;;;;8.76;100.00;101794.31;4977579;28;20325;-71
2021/06/14 00:07:54;;;;;;;;;;;;;;;8.76;100.00;101787.06;4991989;28;20035;-71
2021/06/14 00:10:21;;;;;;;;;;;;;;;8.73;100.00;101800.78;4994670;28;19926;-72
2021/06/14 00:12:47;;;;;;;;;;;;;;;8.68;100.00;101789.31;4994858;28;19980;-71
2021/06/14 00:15:14;;;;;;;;;;;;;;;8.68;100.00;101800.16;5009551;28;19937;-71
2021/06/14 00:17:42;;;;;;;;;;;;;;;8.66;100.00;101793.97;4994993;28;20045;-71
2021/06/14 00:20:09;;;;;;;;;;;;;;;8.65;100.00;101787.66;4993584;28;19930;-71
2021/06/14 00:22:35;;;;;;;;;;;;;;;8.71;100.00;101794.56;4993242;28;19968;-71
2021/06/14 00:25:02;;;;;;;;;;;;;;;8.63;100.00;101783.28;4994800;28;19926;-71
2021/06/14 00:27:28;;;;;;;;;;;;;;;8.60;100.00;101792.47;4994019;28;19979;-71
2021/06/14 00:29:55;;;;;;;;;;;;;;;8.50;100.00;101786.69;4993551;28;19958;-71
2021/06/14 00:32:21;;;;;;;;;;;;;;;8.44;100.00;101792.41;4994557;28;19953;-71
2021/06/14 00:34:49;;;;;;;;;;;;;;;8.40;100.00;101790.81;4994172;28;19926;-71
2021/06/14 00:37:15;;;;;;;;;;;;;;;8.42;100.00;101780.81;5009519;28;20401;-71
2021/06/14 00:39:42;;;;;;;;;;;;;;;8.38;100.00;101780.09;4994281;28;20406;-71
2021/06/14 00:42:08;;;;;;;;;;;;;;;8.32;100.00;101780.41;4992873;28;19929;-71
2021/06/14 00:44:35;;;;;;;;;;;;;;;8.28;100.00;101777.97;4994106;28;19930;-71
2021/06/14 00:47:02;;;;;;;;;;;;;;;8.23;100.00;101778.25;5009423;28;19926;-71
2021/06/14 00:49:28;;;;;;;;;;;;;;;8.17;100.00;101787.53;5009557;28;20309;-71
2021/06/14 00:51:56;;;;;;;;;;;;;;;8.13;100.00;101785.09;5009045;28;19985;-71
2021/06/14 00:54:23;;;;;;;;;;;;;;;8.07;100.00;101783.63;5009176;28;19925;-71
2021/06/14 00:56:50;;;;;;;;;;;;;;;8.04;100.00;101775.66;5009137;28;19926;-71
2021/06/14 00:59:16;;;;;;;;;;;;;;;7.99;100.00;101777.72;4992765;28;19992;-71
2021/06/14 01:01:43;;;;;;;;;;;;;;;7.98;100.00;101781.41;4992570;28;19925;-71
2021/06/14 01:04:10;;;;;;;;;;;;;;;8.03;100.00;101779.28;5008650;28;19933;-71
2021/06/14 01:06:36;;;;;;;;;;;;;;;8.01;100.00;101775.81;4993854;28;19929;-71
2021/06/14 01:09:06;;;;;;;;;;;;;;;7.96;100.00;101775.19;4993576;28;20391;-71
2021/06/14 01:11:36;;;;;;;;;;;;;;;7.92;100.00;101773.59;4992453;28;20336;-71
2021/06/14 01:14:07;;;;;;;;;;;;;;;7.90;100.00;101771.00;4994037;28;20016;-71
2021/06/14 01:16:37;;;;;;;;;;;;;;;7.86;100.00;101762.16;4993518;28;19972;-71
2021/06/14 01:19:06;;;;;;;;;;;;;;;7.83;100.00;101761.44;5008353;28;19932;-71
2021/06/14 01:21:38;;;;;;;;;;;;;;;7.79;100.00;101766.16;5008004;28;19934;-71
2021/06/14 01:24:22;;;;;;;;;;;;;;;7.76;100.00;101762.72;4993524;28;19961;-71
2021/06/14 01:26:58;;;;;;;;;;;;;;;7.71;100.00;101760.28;4993249;28;19925;-71
2021/06/14 01:29:26;;;;;;;;;;;;;;;7.67;100.00;101754.16;5008711;28;19929;-71
2021/06/14 01:31:54;;;;;;;;;;;;;;;7.69;100.00;101762.19;5008489;28;19930;-71
2021/06/14 01:34:24;;;;;;;;;;;;;;;7.65;100.00;101763.31;5008237;28;19925;-71
2021/06/14 01:36:51;;;;;;;;;;;;;;;7.67;100.00;101769.47;4993218;28;19987;-71
2021/06/14 01:39:18;;;;;;;;;;;;;;;7.74;100.00;101757.41;5008140;28;19930;-71
2021/06/14 01:41:46;;;;;;;;;;;;;;;7.74;100.00;101748.41;4991650;28;19993;-71
2021/06/14 01:44:17;;;;;;;;;;;;;;;7.67;100.00;101753.28;4992953;28;19953;-71
2021/06/14 01:46:47;;;;;;;;;;;;;;;7.62;100.00;101749.97;4992050;28;19980;-71
2021/06/14 01:49:14;;;;;;;;;;;;;;;7.65;100.00;101747.09;4993027;28;19976;-71
2021/06/14 01:51:44;;;;;;;;;;;;;;;7.61;100.00;101740.09;4992781;28;19948;-71
2021/06/14 01:54:17;;;;;;;;;;;;;;;7.55;100.00;101735.91;5008120;28;19932;-71
2021/06/14 02:00:21;;;;;;;;;;;;;;;7.60;100.00;101732.94;4992613;28;19941;-71
2021/06/14 02:03:02;;;;;;;;;;;;;;;7.58;100.00;101729.47;4991195;28;19933;-73
2021/06/14 02:05:46;;;;;;;;;;;;;;;7.50;100.00;101727.16;4992813;28;19992;-71
2021/06/14 02:08:13;;;;;;;;;;;;;;;7.44;100.00;101733.75;5007786;28;19980;-71
2021/06/14 02:10:40;;;;;;;;;;;;;;;7.38;100.00;101740.34;5008019;28;19926;-71
2021/06/14 02:13:10;;;;;;;;;;;;;;;7.35;100.00;101742.34;5007726;28;19926;-71
2021/06/14 02:15:36;;;;;;;;;;;;;;;7.31;100.00;101743.41;4992006;28;19953;-71
2021/06/14 02:18:10;;;;;;;;;;;;;;;7.29;100.00;101742.66;4991061;28;20024;-71
2021/06/14 02:20:38;;;;;;;;;;;;;;;7.29;100.00;101742.66;4991239;28;19980;-72
2021/06/14 02:23:04;;;;;;;;;;;;;;;7.25;100.00;101739.22;4991118;28;19925;-71
2021/06/14 02:25:32;;;;;;;;;;;;;;;7.20;100.00;101736.75;5007625;28;20389;-71
2021/06/14 02:28:00;;;;;;;;;;;;;;;7.17;100.00;101742.31;4991115;28;19926;-71
2021/06/14 02:30:28;;;;;;;;;;;;;;;7.14;100.00;101739.78;4990533;28;19926;-71
2021/06/14 02:32:58;;;;;;;;;;;;;;;7.20;100.00;101747.56;4974487;28;19925;-71
2021/06/14 02:35:27;;;;;;;;;;;;;;;7.25;100.00;101735.66;4992491;28;19996;-71
2021/06/14 02:37:57;;;;;;;;;;;;;;;7.24;100.00;101742.00;5007032;28;20028;-71
2021/06/14 02:40:24;;;;;;;;;;;;;;;7.22;100.00;101738.53;4991198;28;20064;-71
2021/06/14 02:42:50;;;;;;;;;;;;;;;7.21;100.00;101740.31;5007353;28;19980;-71
2021/06/14 02:45:17;;;;;;;;;;;;;;;7.18;100.00;101738.66;4990739;28;20015;-71
2021/06/14 02:47:44;;;;;;;;;;;;;;;7.20;100.00;101734.06;4992323;28;19953;-71
2021/06/14 02:50:11;;;;;;;;;;;;;;;7.16;100.00;101731.59;4974624;28;19975;-71
2021/06/14 02:52:41;;;;;;;;;;;;;;;7.16;100.00;101724.38;4990857;28;19925;-71
2021/06/14 02:55:08;;;;;;;;;;;;;;;7.24;100.00;101725.78;4991750;28;19925;-71
2021/06/14 02:57:35;;;;;;;;;;;;;;;7.19;100.00;101721.50;4991898;28;20027;-70
2021/06/14 03:00:06;;;;;;;;;;;;;;;7.18;100.00;101721.59;4992277;28;19929;-72
2021/06/14 03:02:36;;;;;;;;;;;;;;;7.28;100.00;101724.69;4990591;28;19953;-71
2021/06/14 03:05:08;;;;;;;;;;;;;;;7.30;100.00;101717.38;4990980;28;19925;-71
2021/06/14 03:07:34;;;;;;;;;;;;;;;7.31;100.00;101733.50;4992025;28;19926;-71
2021/06/14 03:10:05;;;;;;;;;;;;;;;7.35;100.00;101723.44;4990366;28;19969;-71
2021/06/14 03:12:32;;;;;;;;;;;;;;;7.43;100.00;101710.41;4990968;28;19938;-71
2021/06/14 03:14:59;;;;;;;;;;;;;;;7.43;100.00;101712.19;5006533;28;19972;-71
2021/06/14 03:17:25;;;;;;;;;;;;;;;7.49;100.00;101709.19;4990782;28;19953;-70
2021/06/14 03:19:54;;;;;;;;;;;;;;;7.54;100.00;101702.59;4990439;28;19925;-72
2021/06/14 03:22:21;;;;;;;;;;;;;;;7.59;100.00;101706.88;4991936;28;19937;-72
2021/06/14 03:24:47;;;;;;;;;;;;;;;7.62;100.00;101706.72;4992071;28;19930;-72
2021/06/14 03:27:16;;;;;;;;;;;;;;;7.67;100.00;101710.91;4990525;28;20385;-71
2021/06/14 03:29:44;;;;;;;;;;;;;;;7.75;100.00;101707.81;5007008;28;19937;-72
2021/06/14 03:32:11;;;;;;;;;;;;;;;7.79;100.00;101709.41;4991443;28;19933;-71
2021/06/14 03:34:38;;;;;;;;;;;;;;;7.87;100.00;101703.59;4991881;28;19973;-70
2021/06/14 03:37:05;;;;;;;;;;;;;;;7.93;100.00;101696.97;4991727;28;19926;-71
2021/06/14 03:39:32;;;;;;;;;;;;;;;8.03;100.00;101695.47;4991955;28;19926;-74
2021/06/14 03:41:58;;;;;;;;;;;;;;;8.13;100.00;101706.69;4993755;28;20348;-71
2021/06/14 03:44:26;;;;;;;;;;;;;;;8.24;100.00;101700.66;4995183;28;20011;-71
2021/06/14 03:46:52;;;;;;;;;;;;;;;8.33;100.00;101702.84;4995114;28;19930;-71
2021/06/14 03:49:19;;;;;;;;;;;;;;;8.41;100.00;101703.28;4977987;28;20297;-71
2021/06/14 03:51:49;;;;;;;;;;;;;;;8.49;100.00;101708.31;4993961;28;19926;-71
2021/06/14 03:54:16;;;;;;;;;;;;;;;8.60;100.00;101710.41;5010302;28;19929;-71
2021/06/14 03:56:42;;;;;;;;;;;;;;;8.73;100.00;101703.31;4995023;28;19930;-72
2021/06/14 03:59:08;;;;;;;;;;;;;;;8.86;100.00;101704.34;4995137;28;19930;-71
2021/06/14 04:01:36;;;;;;;;;;;;;;;8.96;100.00;101701.09;4994729;28;19937;-71
2021/06/14 04:04:14;;;;;;;;;;;;;;;9.08;100.00;101700.38;4993535;28;19929;-71
2021/06/14 04:06:46;;;;;;;;;;;;;;;9.24;100.00;101699.47;4993710;28;19932;-71
2021/06/14 04:09:13;;;;;;;;;;;;;;;9.40;100.00;101700.25;4994918;28;19937;-72
2021/06/14 04:11:39;;;;;;;;;;;;;;;9.59;100.00;101696.44;5009881;28;19948;-71
2021/06/14 04:14:06;;;;;;;;;;;;;;;9.83;100.00;101694.88;4993487;28;19926;-72
2021/06/14 04:16:32;;;;;;;;;;;;;;;10.05;100.00;101693.56;4993651;28;19933;-71
2021/06/14 04:19:00;;;;;;;;;;;;;;;10.26;100.00;101704.88;4994743;28;19926;-71
2021/06/14 04:21:26;;;;;;;;;;;;;;;10.45;100.00;101704.59;4994456;28;19926;-72
2021/06/14 04:23:52;;;;;;;;;;;;;;;10.63;100.00;101693.47;4993078;28;19937;-72
2021/06/14 04:26:19;;;;;;;;;;;;;;;10.76;100.00;101693.56;5009961;28;19980;-72
2021/06/14 04:28:45;;;;;;;;;;;;;;;10.88;100.00;101682.72;5010483;28;20370;-72
2021/06/14 04:31:12;;;;;;;;;;;;;;;11.03;100.00;101682.66;4994356;28;20308;-72
2021/06/14 04:33:38;;;;;;;;;;;;;;;11.15;100.00;101683.66;5010565;28;19933;-72
2021/06/14 04:36:06;;;;;;;;;;;;;;;11.32;100.00;101671.66;4993852;28;19925;-72
2021/06/14 04:38:33;;;;;;;;;;;;;;;11.48;100.00;101669.59;4995928;28;19937;-71
2021/06/14 04:40:59;;;;;;;;;;;;;;;11.66;100.00;101674.69;5007215;28;19929;-73
2021/06/14 04:43:25;;;;;;;;;;;;;;;11.80;100.00;101666.44;5014058;28;19972;-74
2021/06/14 04:45:52;;;;;;;;;;;;;;;11.91;100.00;101667.53;5004895;28;19949;-74
2021/06/14 04:48:18;;;;;;;;;;;;;;;12.08;100.00;101674.47;4998613;28;19929;-74
2021/06/14 04:50:45;;;;;;;;;;;;;;;12.23;100.00;101666.06;4977512;28;19962;-73
2021/06/14 04:53:13;;;;;;;;;;;;;;;12.42;100.00;101661.97;5008394;28;19933;-72
2021/06/14 04:55:39;;;;;;;;;;;;;;;12.62;100.00;101659.63;4995747;28;20052;-72
2021/06/14 04:58:05;;;;;;;;;;;;;;;12.79;100.00;101656.50;4998218;28;19988;-72
2021/06/14 05:00:32;;;;;;;;;;;;;;;13.00;100.00;101655.84;4994738;28;19925;-71
2021/06/14 05:02:58;;;;;;;;;;;;;;;13.22;100.00;101657.78;5016279;28;20290;-71
2021/06/14 05:05:24;;;;;;;;;;;;;;;13.47;100.00;101661.34;4997545;28;19926;-71
2021/06/14 05:07:50;;;;;;;;;;;;;;;13.70;100.00;101659.53;4993825;28;19988;-71
2021/06/14 05:10:18;;;;;;;;;;;;;;;13.93;100.00;101662.28;5000471;28;19991;-71
2021/06/14 05:12:45;;;;;;;;;;;;;;;14.11;100.00;101666.25;5013026;28;19925;-71
2021/06/14 05:15:12;;;;;;;;;;;;;;;14.30;100.00;101664.75;5004671;28;19926;-71
2021/06/14 05:17:38;;;;;;;;;;;;;;;14.45;100.00;101660.72;4994489;28;19979;-71
2021/06/14 05:20:05;;;;;;;;;;;;;;;14.67;100.00;101667.16;4996144;28;19988;-71
2021/06/14 05:22:32;;;;;;;;;;;;;;;14.86;100.00;101661.88;4991452;28;20060;-71
2021/06/14 05:24:58;;;;;;;;;;;;;;;15.06;100.00;101656.59;5008759;28;19926;-71
2021/06/14 05:27:26;;;;;;;;;;;;;;;15.25;100.00;101655.88;5011437;28;19926;-71
2021/06/14 05:29:52;;;;;;;;;;;;;;;15.46;100.00;101653.13;4995049;28;19988;-71
2021/06/14 05:32:19;;;;;;;;;;;;;;;15.61;100.00;101650.06;4997556;28;19929;-70
2021/06/14 05:34:45;;;;;;;;;;;;;;;15.80;100.00;101650.16;5012511;28;19926;-71
2021/06/14 05:37:11;;;;;;;;;;;;;;;15.90;100.00;101644.75;5002203;28;19937;-71
2021/06/14 05:39:38;;;;;;;;;;;;;;;16.11;100.00;101647.41;5008265;28;19926;-71
2021/06/14 05:42:04;;;;;;;;;;;;;;;16.28;100.00;101648.63;5001400;28;20000;-70
2021/06/14 05:44:32;;;;;;;;;;;;;;;16.37;100.00;101650.53;5007958;28;19929;-70
2021/06/14 05:46:58;;;;;;;;;;;;;;;16.50;100.00;101660.38;4992910;28;19926;-71
2021/06/14 05:49:24;;;;;;;;;;;;;;;16.61;100.00;101664.84;5003147;28;19960;-71
2021/06/14 05:51:51;;;;;;;;;;;;;;;16.63;100.00;101658.22;5005012;28;20382;-71
2021/06/14 05:54:17;;;;;;;;;;;;;;;16.70;100.00;101662.16;4996781;28;19929;-70
2021/06/14 05:56:43;;;;;;;;;;;;;;;16.95;100.00;101656.28;4998817;28;19938;-70
2021/06/14 05:59:10;;;;;;;;;;;;;;;17.18;100.00;101659.59;4992473;28;20352;-71
2021/06/14 06:01:38;;;;;;;;;;;;;;;17.56;100.00;101655.06;4996206;28;19929;-71
2021/06/14 06:04:04;;;;;;;;;;;;;;;17.74;100.00;101650.53;5012185;28;20312;-70
2021/06/14 06:06:30;;;;;;;;;;;;;;;18.06;100.00;101656.66;4998869;28;19925;-71
2021/06/14 06:08:57;;;;;;;;;;;;;;;18.45;100.00;101664.69;4994683;28;19972;-70
2021/06/14 06:11:23;;;;;;;;;;;;;;;18.73;100.00;101664.66;4994875;28;19960;-70
2021/06/14 06:13:50;;;;;;;;;;;;;;;19.21;100.00;101662.56;4990879;28;20337;-71
2021/06/14 06:16:16;;;;;;;;;;;;;;;19.72;100.00;101663.66;4994593;28;19936;-71
2021/06/14 06:18:44;;;;;;;;;;;;;;;19.57;100.00;101657.00;5007059;28;20363;-71
2021/06/14 06:21:10;;;;;;;;;;;;;;;20.01;100.00;101664.34;4992206;28;19934;-71
2021/06/14 06:23:37;;;;;;;;;;;;;;;20.56;100.00;101663.91;4991258;28;19976;-71
2021/06/14 06:26:03;;;;;;;;;;;;;;;20.87;96.35;101668.81;4990969;28;20001;-71
2021/06/14 06:28:29;;;;;;;;;;;;;;;20.66;94.52;101658.22;4992986;28;19926;-71
2021/06/14 06:30:55;;;;;;;;;;;;;;;20.84;96.87;101662.78;4997135;28;20300;-73
2021/06/14 06:33:22;;;;;;;;;;;;;;;20.97;95.32;101665.03;4995835;28;20289;-73
2021/06/14 06:35:50;;;;;;;;;;;;;;;21.06;90.86;101647.47;5009018;28;19929;-72
2021/06/14 06:38:16;;;;;;;;;;;;;;;20.81;91.29;101655.69;5011978;28;19976;-72
2021/06/14 06:40:42;;;;;;;;;;;;;;;20.81;90.55;101650.19;5012482;28;19937;-73
2021/06/14 06:43:09;;;;;;;;;;;;;;;20.96;89.46;101644.00;5011485;28;20043;-72
2021/06/14 06:45:35;;;;;;;;;;;;;;;21.14;89.34;101639.19;5011629;28;19968;-72
2021/06/14 06:48:02;;;;;;;;;;;;;;;21.43;88.16;101631.38;5010773;28;19973;-72
2021/06/14 06:50:28;;;;;;;;;;;;;;;21.40;87.35;101646.41;5011989;28;19925;-72
2021/06/14 06:52:56;;;;;;;;;;;;;;;21.23;85.99;101642.78;5026856;28;19995;-72
2021/06/14 06:55:22;;;;;;;;;;;;;;;21.28;88.32;101636.75;5011482;28;19932;-72
2021/06/14 06:57:49;;;;;;;;;;;;;;;21.68;89.32;101635.00;5011787;28;19979;-72
2021/06/14 07:00:16;;;;;;;;;;;;;;;21.62;84.43;101622.75;5010298;28;19925;-72
2021/06/14 07:02:43;;;;;;;;;;;;;;;21.88;82.88;101636.31;5011758;28;19932;-71
2021/06/14 07:05:10;;;;;;;;;;;;;;;21.71;82.23;101629.13;5011731;28;19969;-72
2021/06/14 07:07:36;;;;;;;;;;;;;;;21.64;81.21;101626.19;5011026;28;20411;-72
2021/06/14 07:10:05;;;;;;;;;;;;;;;21.98;82.79;101627.84;5011595;28;19925;-72
2021/06/14 07:12:33;;;;;;;;;;;;;;;22.04;80.15;101623.50;5010963;28;19971;-73
2021/06/14 07:14:59;;;;;;;;;;;;;;;22.45;77.83;101620.56;5010276;28;19968;-72
2021/06/14 07:17:26;;;;;;;;;;;;;;;22.36;75.21;101628.03;5014572;28;19925;-72
2021/06/14 07:19:52;;;;;;;;;;;;;;;22.87;71.80;101615.59;5015416;28;20024;-72
2021/06/14 07:22:18;;;;;;;;;;;;;;;23.36;67.54;101612.44;5015228;28;20520;-72
2021/06/14 07:24:45;;;;;;;;;;;;;;;22.95;68.05;101606.38;5014875;28;19929;-72
2021/06/14 07:27:12;;;;;;;;;;;;;;;22.83;67.75;101615.09;5015114;28;19926;-72
2021/06/14 07:29:38;;;;;;;;;;;;;;;23.07;68.63;101615.97;5015089;28;19926;-72
2021/06/14 07:32:06;;;;;;;;;;;;;;;23.36;65.55;101609.69;5014930;28;19983;-72
2021/06/14 07:34:32;;;;;;;;;;;;;;;23.65;65.11;101612.66;5015420;28;19957;-72
2021/06/14 07:36:58;;;;;;;;;;;;;;;23.48;64.72;101606.47;5014644;28;19996;-72
2021/06/14 07:39:25;;;;;;;;;;;;;;;23.65;62.91;101609.91;5015073;28;19929;-73
2021/06/14 07:41:51;;;;;;;;;;;;;;;23.22;62.39;101614.16;5014583;28;19952;-72
2021/06/14 07:44:18;;;;;;;;;;;;;;;23.54;61.31;101601.03;5014998;28;20348;-73
2021/06/14 07:46:45;;;;;;;;;;;;;;;23.71;61.34;101600.84;5015056;28;19937;-73
2021/06/14 07:49:11;;;;;;;;;;;;;;;24.07;61.20;101605.63;5014634;28;20455;-73
2021/06/14 07:51:38;;;;;;;;;;;;;;;24.34;59.04;101594.88;5015002;28;19969;-72
2021/06/14 07:54:04;;;;;;;;;;;;;;;25.00;56.59;101591.09;5014532;28;19931;-73
2021/06/14 07:56:30;;;;;;;;;;;;;;;25.01;53.10;101588.13;5014713;28;19929;-73
2021/06/14 07:58:57;;;;;;;;;;;;;;;25.49;55.96;101586.59;5014341;28;20082;-71
2021/06/14 08:01:24;;;;;;;;;;;;;;;25.68;51.38;101591.44;5014619;28;19929;-73
2021/06/14 08:03:52;;;;;;;;;;;;;;;25.03;53.95;101599.88;5014961;28;19926;-73
2021/06/14 08:06:18;;;;;;;;;;;;;;;25.05;56.50;101605.25;5014319;28;19968;-73
2021/06/14 08:08:45;;;;;;;;;;;;;;;25.33;55.11;101596.06;5014556;28;19983;-73
2021/06/14 08:11:11;;;;;;;;;;;;;;;25.44;53.50;101595.56;5013293;28;19925;-73
2021/06/14 08:13:38;;;;;;;;;;;;;;;25.98;50.01;101602.28;5014233;28;19925;-73
2021/06/14 08:16:08;;;;;;;;;;;;;;;24.92;49.27;101597.66;5014177;28;19964;-73
2021/06/14 08:18:41;;;;;;;;;;;;;;;25.04;49.89;101593.28;5014266;28;19929;-74
2021/06/14 08:21:16;;;;;;;;;;;;;;;25.80;50.99;101591.72;5014383;28;19926;-73
2021/06/14 08:26:28;;;;;;;;;;;;;;;25.18;48.95;101585.91;4994573;28;19933;-72
2021/06/14 08:28:56;;;;;;;;;;;;;;;24.97;51.76;101577.63;4993454;28;19929;-72
2021/06/14 08:31:23;;;;;;;;;;;;;;;25.04;51.30;101573.84;4994292;28;19933;-72
2021/06/14 08:33:50;;;;;;;;;;;;;;;24.72;52.74;101578.03;4994428;28;20293;-73
2021/06/14 08:36:17;;;;;;;;;;;;;;;25.39;54.40;101573.09;5008263;28;19929;-72
2021/06/14 08:38:43;;;;;;;;;;;;;;;25.89;50.82;101572.94;4993323;28;20377;-72
2021/06/14 08:41:09;;;;;;;;;;;;;;;26.06;47.73;101570.72;4994358;28;19926;-72
2021/06/14 08:43:36;;;;;;;;;;;;;;;26.23;47.26;101565.66;4992623;28;19937;-72
2021/06/14 08:46:03;;;;;;;;;;;;;;;26.37;44.96;101563.75;4994332;28;19930;-72
2021/06/14 08:48:31;;;;;;;;;;;;;;;26.73;43.64;101551.44;4993019;28;19980;-72
2021/06/14 08:50:59;;;;;;;;;;;;;;;26.20;43.82;101554.91;4994258;28;19926;-72
2021/06/14 08:53:25;;;;;;;;;;;;;;;25.64;45.40;101551.22;4992608;28;19929;-71
2021/06/14 08:55:52;;;;;;;;;;;;;;;26.52;44.78;101555.22;4993525;28;20282;-72
2021/06/14 08:58:18;;;;;;;;;;;;;;;26.25;44.60;101552.38;4992835;28;19980;-72
2021/06/14 09:00:45;;;;;;;;;;;;;;;26.20;44.55;101543.78;4992444;28;19926;-73
2021/06/14 09:03:11;;;;;;;;;;;;;;;26.40;44.63;101546.63;4991999;28;19937;-73
2021/06/14 09:05:37;;;;;;;;;;;;;;;26.62;46.34;101546.44;4993532;28;19925;-72
2021/06/14 09:08:07;;;;;;;;;;;;;;;27.14;43.40;101544.81;4993784;28;19930;-72
2021/06/14 09:10:35;;;;;;;;;;;;;;;27.14;43.57;101533.66;4993957;28;20004;-72
2021/06/14 09:13:14;;;;;;;;;;;;;;;26.88;43.03;101537.31;4991570;28;19926;-72
2021/06/14 09:15:42;;;;;;;;;;;;;;;26.34;42.25;101533.56;4993703;28;19926;-73
2021/06/14 09:18:22;;;;;;;;;;;;;;;26.47;45.02;101529.94;4991895;28;19934;-73
2021/06/14 09:20:56;;;;;;;;;;;;;;;26.65;44.51;101519.03;4976057;28;19925;-73
2021/06/14 09:23:23;;;;;;;;;;;;;;;26.95;42.95;101528.94;4975943;28;19975;-74
2021/06/14 09:25:50;;;;;;;;;;;;;;;26.67;42.26;101518.81;5008519;28;19926;-73
2021/06/14 09:28:16;;;;;;;;;;;;;;;26.50;41.98;101527.59;4993314;28;19940;-73
2021/06/14 09:30:44;;;;;;;;;;;;;;;27.11;41.44;101514.59;4993182;28;19926;-73
2021/06/14 09:33:21;;;;;;;;;;;;;;;26.89;42.20;101512.00;4992753;28;19930;-73
2021/06/14 09:35:47;;;;;;;;;;;;;;;26.74;42.64;101514.19;4992962;28;20435;-73
2021/06/14 09:38:14;;;;;;;;;;;;;;;27.03;40.87;101503.66;4991904;28;19957;-73
2021/06/14 09:40:43;;;;;;;;;;;;;;;27.02;43.12;101505.59;4993225;28;19926;-74
2021/06/14 09:43:22;;;;;;;;;;;;;;;27.04;41.26;101499.81;4992705;28;19934;-73
2021/06/14 09:45:48;;;;;;;;;;;;;;;27.54;42.88;101497.38;4993467;28;19933;-73
2021/06/14 09:48:15;;;;;;;;;;;;;;;27.43;39.31;101492.47;4991646;28;19937;-73
2021/06/14 09:50:43;;;;;;;;;;;;;;;27.63;39.55;101489.59;5007952;28;19980;-74
2021/06/14 09:53:11;;;;;;;;;;;;;;;27.53;39.48;101483.66;4992780;28;20349;-73
2021/06/14 09:55:37;;;;;;;;;;;;;;;27.33;39.50;101478.97;4992703;28;19929;-73
2021/06/14 09:58:18;;;;;;;;;;;;;;;27.68;39.05;101475.03;4992914;28;19932;-73
2021/06/14 10:00:52;;;;;;;;;;;;;;;27.35;39.70;101473.16;4992597;28;19926;-73
2021/06/14 10:03:18;;;;;;;;;;;;;;;27.83;38.77;101464.47;4992250;28;20500;-73
2021/06/14 10:05:46;;;;;;;;;;;;;;;28.34;37.99;101454.31;4992784;28;19934;-73
2021/06/14 10:08:13;;;;;;;;;;;;;;;28.03;39.27;101464.38;4992219;28;19941;-73
2021/06/14 10:10:40;;;;;;;;;;;;;;;27.77;38.87;101462.53;4997595;28;20299;-73
2021/06/14 10:13:06;;;;;;;;;;;;;;;28.36;39.89;101463.28;5009953;28;19972;-74
2021/06/14 10:15:35;;;;;;;;;;;;;;;28.00;38.67;101459.19;5007236;28;19930;-73
2021/06/14 10:18:03;;;;;;;;;;;;;;;28.48;38.17;101452.25;5000386;28;19980;-73
2021/06/14 10:20:30;;;;;;;;;;;;;;;28.17;38.53;101455.94;4993310;28;19962;-74
2021/06/14 10:22:57;;;;;;;;;;;;;;;29.14;36.54;101447.16;4973833;28;20301;-74
2021/06/14 10:25:25;;;;;;;;;;;;;;;29.27;35.75;101448.16;4991914;28;20154;-74
2021/06/14 10:27:52;;;;;;;;;;;;;;;29.63;37.24;101452.84;4997486;28;20392;-74
2021/06/14 10:30:20;;;;;;;;;;;;;;;29.76;37.17;101440.66;4991927;28;19930;-74
2021/06/14 10:32:48;;;;;;;;;;;;;;;29.68;34.62;101449.38;4991500;28;20372;-74
2021/06/14 10:35:15;;;;;;;;;;;;;;;29.61;35.41;101445.78;4992940;28;19926;-75
2021/06/14 10:37:43;;;;;;;;;;;;;;;29.29;35.19;101437.56;4992878;28;19925;-74
2021/06/14 10:40:09;;;;;;;;;;;;;;;29.28;35.38;101428.34;5010577;28;19929;-74
2021/06/14 10:42:36;;;;;;;;;;;;;;;28.94;34.70;101421.38;5011813;28;20234;-73
2021/06/14 10:45:03;;;;;;;;;;;;;;;29.20;35.74;101423.03;4994269;28;19925;-74
2021/06/14 10:47:30;;;;;;;;;;;;;;;29.41;35.89;101418.06;4993052;28;20440;-74
2021/06/14 10:49:58;;;;;;;;;;;;;;;29.06;35.68;101412.00;4993148;28;19929;-74
2021/06/14 10:52:24;;;;;;;;;;;;;;;29.47;36.31;101414.34;4992829;28;19926;-74
2021/06/14 10:54:50;;;;;;;;;;;;;;;29.87;34.45;101414.69;4992470;28;20007;-74
2021/06/14 10:57:17;;;;;;;;;;;;;;;28.51;35.64;101407.13;5008402;28;20451;-74
2021/06/14 10:59:45;;;;;;;;;;;;;;;28.99;36.02;101399.19;4992258;28;19926;-75
2021/06/14 11:02:12;;;;;;;;;;;;;;;29.17;35.54;101403.91;4994531;28;19926;-73
2021/06/14 11:04:39;;;;;;;;;;;;;;;29.17;34.55;101388.00;5011731;28;20413;-73
2021/06/14 11:07:06;;;;;;;;;;;;;;;29.47;35.04;101398.41;5009639;28;19926;-74
2021/06/14 11:09:42;;;;;;;;;;;;;;;29.35;34.35;101389.13;5011840;28;19926;-74
2021/06/14 11:12:09;;;;;;;;;;;;;;;29.75;33.52;101379.34;5009730;28;19945;-74
2021/06/14 11:14:37;;;;;;;;;;;;;;;30.00;35.37;101376.44;5011397;28;20393;-74
2021/06/14 11:17:17;;;;;;;;;;;;;;;29.27;33.71;101379.09;5004287;28;19926;-75
2021/06/14 11:19:44;;;;;;;;;;;;;;;29.09;34.14;101368.78;4991466;28;19930;-75
2021/06/14 11:22:12;;;;;;;;;;;;;;;28.91;35.42;101363.19;4988384;28;20449;-73
2021/06/14 11:24:40;;;;;;;;;;;;;;;29.00;35.46;101364.56;5022560;28;20348;-74
2021/06/14 11:27:09;;;;;;;;;;;;;;;28.81;35.63;101355.31;5003212;28;19980;-74
2021/06/14 11:29:47;;;;;;;;;;;;;;;29.60;35.83;101355.44;4992022;28;19926;-73
2021/06/14 11:32:18;;;;;;;;;;;;;;;29.97;34.29;101346.97;4992434;28;20322;-74
2021/06/14 11:34:46;;;;;;;;;;;;;;;29.38;34.07;101338.31;5006944;28;19925;-75
2021/06/14 11:37:13;;;;;;;;;;;;;;;28.77;34.84;101340.97;4997048;28;20024;-74
2021/06/14 11:39:40;;;;;;;;;;;;;;;29.11;36.72;101340.59;5000752;28;20036;-74
2021/06/14 11:42:08;;;;;;;;;;;;;;;29.29;34.46;101340.59;4977522;28;19934;-75
2021/06/14 11:44:34;;;;;;;;;;;;;;;29.23;34.99;101341.50;4971704;28;19973;-74
2021/06/14 11:47:13;;;;;;;;;;;;;;;29.17;34.55;101343.31;4991833;28;19926;-74
2021/06/14 11:49:40;;;;;;;;;;;;;;;29.95;34.64;101337.97;5019722;28;19927;-74
2021/06/14 11:52:17;;;;;;;;;;;;;;;30.30;33.46;101341.91;5011063;28;20372;-74
2021/06/14 11:54:43;;;;;;;;;;;;;;;30.26;32.73;101330.34;4999043;28;19972;-73
2021/06/14 11:57:09;;;;;;;;;;;;;;;30.09;32.89;101321.78;5006027;28;19932;-74
2021/06/14 11:59:36;;;;;;;;;;;;;;;29.40;33.00;101316.59;5009261;28;19934;-77
2021/06/14 12:02:04;;;;;;;;;;;;;;;29.30;35.07;101327.47;5011635;28;19926;-76
2021/06/14 12:04:30;;;;;;;;;;;;;;;29.28;33.40;101318.50;4997116;28;19930;-75
2021/06/14 12:07:00;;;;;;;;;;;;;;;29.07;35.20;101320.63;4993708;28;19973;-74
2021/06/14 12:09:30;;;;;;;;;;;;;;;29.72;33.77;101310.75;5000834;28;19930;-73
2021/06/14 12:11:57;;;;;;;;;;;;;;;30.02;31.97;101313.50;4994916;28;19988;-73
2021/06/14 12:14:23;;;;;;;;;;;;;;;30.13;32.69;101306.25;4998402;28;20012;-73
2021/06/14 12:16:57;;;;;;;;;;;;;;;30.15;32.09;101301.25;5011213;28;19933;-73
2021/06/14 12:19:24;;;;;;;;;;;;;;;30.50;31.94;101296.78;5003886;28;19930;-74
2021/06/14 12:21:51;;;;;;;;;;;;;;;30.87;30.48;101290.88;5012821;28;19925;-74
2021/06/14 12:24:18;;;;;;;;;;;;;;;30.98;31.33;101290.00;5002758;28;19941;-71
2021/06/14 12:26:46;;;;;;;;;;;;;;;31.19;31.39;101291.31;4994708;28;19929;-73
2021/06/14 12:29:17;;;;;;;;;;;;;;;30.78;31.95;101290.41;4994751;28;19976;-74
2021/06/14 12:31:44;;;;;;;;;;;;;;;30.63;32.47;101288.13;4995577;28;19965;-73
2021/06/14 12:34:10;;;;;;;;;;;;;;;31.60;30.85;101273.56;4993214;28;20377;-74
2021/06/14 12:36:36;;;;;;;;;;;;;;;31.66;30.23;101276.22;5008426;28;20455;-72
2021/06/14 12:39:03;;;;;;;;;;;;;;;31.91;31.21;101265.69;4992147;28;19980;-74
2021/06/14 12:41:30;;;;;;;;;;;;;;;30.92;30.56;101273.31;4995289;28;19933;-74
2021/06/14 12:44:00;;;;;;;;;;;;;;;31.05;30.50;101270.25;5008492;28;20007;-73